GMTA

Cherif Al Idrissi Airport

Al Hoceima, Morocco
METAR GMTA 152200Z 04002KT 8000 SCT026 SCT080 23/22 Q1016 NOSIG
Observed Flight Rules
Aug-15 @ 22:00 UTC (26 minutes ago) Marginal Visual Flight Rules
Wind Visibility Clouds
40° at 2 knots 7,998 meters
  • Scattered at 2,600' AGL
  • Scattered at 8,000' AGL
Temperatures Readings
Current 23°C / 73°F
Dewpoint 22°C / 72°F
Humidity 94%
Altimeter 30" Hg
Pressure 1016 hPa
Elevation 14
METAR GMTA 152200Z 04002KT 8000 SCT026 SCT080 23/22 Q1016 NOSIG
Observed Flight Rules
Aug-15 @ 22:00 UTC
(26 minutes ago)
MVFR
Wind Visibility
40° at 2 knots 7,998 meters
Clouds
  • Scattered at 2,600' AGL
  • Scattered at 8,000' AGL
Temperature Dewpoint
23°C / 73°F 22°C / 72°F
Humidity Altimeter Pressure
94% 30" Hg 1016 hPa